West Concord, Minnesota
Current Conditions -  °F | °C
As of 4:33 PM on Monday 24 Nov 2014 (Local Time) from KTOB Reporting Station
Light Snow Light Snow  
Wind Chill:   Ceiling: 1900
Heat Index: 18°   Visibility: 2.5mi
Dew Point: 14°   Wind: 17mph
Humidity: 86%   Direction: 290°WNW
Pressure: 29.61"   Gusts: 24mph
Location:  44.15°N, 92.9°W
Report Text: KTOB 242233Z AUTO 29015G21KT 2 1/2SM -SN OVC019 M08/M10 A2961 RMK AO2
Loading
Personal Weather Stations






























Interactive Weather Map New forecast layout! Learn more

10-Day Weather Forecast

Advertisements
Track Severe Weather on mobile